Time;durP1;ratioP1;P1;durP2;ratioP2;P2;SDS_P1;SDS_P2;PMS_P1;PMS_P2;Temp;Humidity;BMP_temperature;BMP_pressure;BME280_temperature;BME280_humidity;BME280_pressure;Samples;Min_cycle;Max_cycle;Signal;HPM_P1;HPM_P2
2023/08/12 00:00:42;;;;;;;3.45;2.42;;;;;;;17.96;92.26;64860.34;5054837;28;20224;-51
2023/08/12 00:03:08;;;;;;;3.80;2.60;;;;;;;17.95;92.02;64859.25;5066759;28;20204;-51
2023/08/12 00:05:35;;;;;;;3.33;2.20;;;;;;;18.01;90.91;64868.41;5069502;28;20173;-52
2023/08/12 00:08:01;;;;;;;3.65;2.63;;;;;;;18.03;91.79;64867.50;5051674;28;20222;-54
2023/08/12 00:10:27;;;;;;;3.13;2.70;;;;;;;17.93;91.07;64854.47;5054367;28;20220;-56
2023/08/12 00:12:52;;;;;;;2.65;2.33;;;;;;;17.88;90.97;64848.41;5052237;28;20248;-54
2023/08/12 00:15:18;;;;;;;2.97;2.70;;;;;;;17.88;90.90;64848.41;5053920;28;20299;-51
2023/08/12 00:17:44;;;;;;;2.38;2.17;;;;;;;17.89;90.49;64850.06;5053902;28;20267;-50
2023/08/12 00:20:11;;;;;;;3.65;2.30;;;;;;;17.87;90.87;64850.41;5054187;28;20190;-53
2023/08/12 00:22:37;;;;;;;2.58;2.20;;;;;;;17.77;91.04;64839.41;5053868;28;20216;-54
2023/08/12 00:25:03;;;;;;;2.85;2.42;;;;;;;17.71;91.68;64832.78;5053650;28;20224;-51
2023/08/12 00:27:29;;;;;;;2.95;2.30;;;;;;;17.68;91.60;64828.91;5053985;28;20577;-54
2023/08/12 00:29:54;;;;;;;2.53;2.33;;;;;;;17.69;91.07;64830.56;5052608;28;20202;-50
2023/08/12 00:32:22;;;;;;;2.70;2.45;;;;;;;17.66;91.88;64826.69;5055010;28;20595;-53
2023/08/12 00:34:47;;;;;;;2.50;2.20;;;;;;;17.65;91.23;64825.63;5052807;28;20197;-51
2023/08/12 00:37:13;;;;;;;3.10;2.28;;;;;;;17.60;91.85;64820.66;5053831;28;20221;-53
2023/08/12 00:39:40;;;;;;;2.70;2.40;;;;;;;17.58;91.70;64818.44;5051592;28;20560;-52
2023/08/12 00:42:06;;;;;;;6.10;2.47;;;;;;;17.54;91.65;64812.03;5054606;28;20671;-52
2023/08/12 00:44:31;;;;;;;2.90;2.60;;;;;;;17.54;91.53;64814.03;5053313;28;20205;-53
2023/08/12 00:46:57;;;;;;;2.67;2.38;;;;;;;17.51;91.55;64808.72;5053358;28;20215;-52
2023/08/12 00:49:24;;;;;;;2.60;2.40;;;;;;;17.60;91.48;64821.19;5053101;28;20208;-54
2023/08/12 00:51:50;;;;;;;3.55;2.30;;;;;;;17.58;90.80;64818.44;5052898;28;20332;-52
2023/08/12 00:54:16;;;;;;;2.83;2.55;;;;;;;17.60;90.43;64823.19;5053971;28;20688;-51
2023/08/12 00:56:43;;;;;;;3.78;2.33;;;;;;;17.61;91.42;64819.75;5054536;28;20229;-50
2023/08/12 00:59:10;;;;;;;2.95;2.38;;;;;;;17.77;91.03;64841.94;5052273;28;20211;-58
2023/08/12 01:01:40;;;;;;;2.50;2.08;;;;;;;17.86;91.15;64851.84;5054673;28;20304;-54
2023/08/12 01:04:06;;;;;;;2.42;2.20;;;;;;;17.87;89.72;64850.41;5051105;28;20194;-51
2023/08/12 01:06:31;;;;;;;2.28;2.10;;;;;;;17.85;89.82;64845.09;5053530;28;20568;-54
2023/08/12 01:08:57;;;;;;;2.35;2.15;;;;;;;17.72;89.42;64833.88;5051815;28;20198;-54
2023/08/12 01:11:42;;;;;;;4.38;2.45;;;;;;;17.81;90.52;64843.81;5052311;28;20213;-53
2023/08/12 01:14:27;;;;;;;2.95;2.45;;;;;;;17.80;89.90;64842.69;5052160;28;20223;-51
2023/08/12 01:17:00;;;;;;;3.22;2.38;;;;;;;17.70;88.85;64829.13;5055002;28;20267;-53
2023/08/12 01:19:33;;;;;;;4.57;2.15;;;;;;;17.79;88.80;64841.59;5050488;28;20583;-53
2023/08/12 01:22:01;;;;;;;4.40;2.40;;;;;;;17.84;89.87;64846.53;5052905;28;20713;-53
2023/08/12 01:24:35;;;;;;;4.20;2.58;;;;;;;17.91;89.89;64857.38;5051659;28;20253;-51
2023/08/12 01:27:00;;;;;;;2.30;2.10;;;;;;;17.93;89.35;64857.03;5051536;28;20228;-52
2023/08/12 01:29:26;;;;;;;4.10;2.50;;;;;;;17.90;90.07;64856.25;5053426;28;20198;-51
2023/08/12 01:32:18;;;;;;;3.30;2.42;;;;;;;17.84;88.12;64846.53;5053717;28;20336;-50
2023/08/12 01:34:48;;;;;;;3.33;2.10;;;;;;;17.77;87.67;64841.38;5051399;28;20272;-53
2023/08/12 01:37:27;;;;;;;2.42;2.15;;;;;;;17.77;88.84;64841.38;5051502;28;20221;-50
2023/08/12 01:39:55;;;;;;;3.17;2.38;;;;;;;17.73;88.52;64837.53;5052068;28;20215;-53
2023/08/12 01:42:20;;;;;;;3.60;2.10;;;;;;;17.72;88.49;64836.41;5049373;28;20280;-53
2023/08/12 01:44:48;;;;;;;3.67;2.58;;;;;;;17.78;88.02;64839.94;5051144;28;20205;-55
2023/08/12 01:47:14;;;;;;;2.55;2.35;;;;;;;17.77;88.83;64841.94;5051063;28;20756;-55
2023/08/12 01:49:39;;;;;;;5.28;2.03;;;;;;;17.69;87.66;64833.13;5052123;28;20201;-55
2023/08/12 01:52:05;;;;;;;3.10;2.13;;;;;;;17.71;88.50;64830.22;5052446;28;20225;-54
2023/08/12 01:54:34;;;;;;;3.13;2.40;;;;;;;17.75;88.75;64837.19;5052520;28;20651;-54
2023/08/12 01:57:05;;;;;;;2.22;2.03;;;;;;;17.78;88.94;64837.38;5051280;28;20233;-51
2023/08/12 01:59:32;;;;;;;2.72;1.90;;;;;;;17.88;88.83;64851.50;5051488;28;20251;-52
2023/08/12 02:01:58;;;;;;;3.08;2.50;;;;;;;17.83;87.44;64846.00;5050347;28;20209;-52
2023/08/12 02:04:24;;;;;;;4.40;1.90;;;;;;;17.80;88.93;64842.69;5051287;28;20701;-55
2023/08/12 02:06:49;;;;;;;2.42;2.22;;;;;;;17.82;88.21;64844.91;5053152;28;20710;-57
2023/08/12 02:09:15;;;;;;;2.15;1.90;;;;;;;17.75;87.24;64836.63;5052107;28;20767;-55
2023/08/12 02:11:47;;;;;;;2.08;1.98;;;;;;;17.66;88.25;64827.25;5053584;28;20217;-51
2023/08/12 02:14:13;;;;;;;2.72;2.33;;;;;;;17.49;88.83;64808.53;5051917;28;20212;-54
2023/08/12 02:16:40;;;;;;;2.75;2.30;;;;;;;17.51;88.79;64813.81;5052606;28;20209;-54
2023/08/12 02:19:05;;;;;;;2.40;2.20;;;;;;;17.45;88.90;64804.09;5052333;28;20253;-55
2023/08/12 02:21:31;;;;;;;2.55;2.30;;;;;;;17.50;89.67;64810.19;5051678;28;20721;-52
2023/08/12 02:23:57;;;;;;;2.83;2.00;;;;;;;17.56;89.39;64816.78;5053315;28;20288;-52
2023/08/12 02:26:22;;;;;;;2.10;1.92;;;;;;;17.63;88.75;64823.97;5051981;28;20291;-53
2023/08/12 02:28:48;;;;;;;2.13;1.92;;;;;;;17.64;87.37;64825.06;5053163;28;20635;-52
2023/08/12 02:31:16;;;;;;;2.65;2.35;;;;;;;17.57;88.08;64817.88;5053274;28;20225;-52
2023/08/12 02:33:42;;;;;;;2.00;1.90;;;;;;;17.67;88.14;64828.38;5051430;28;20200;-55
2023/08/12 02:36:08;;;;;;;4.82;1.95;;;;;;;17.64;89.00;64825.06;5052036;28;20217;-51
2023/08/12 02:38:34;;;;;;;2.58;2.38;;;;;;;17.63;89.09;64823.41;5049022;28;20206;-51
2023/08/12 02:40:59;;;;;;;2.78;2.28;;;;;;;17.54;89.46;64811.50;5050968;28;20182;-51
2023/08/12 02:43:25;;;;;;;4.55;1.90;;;;;;;17.55;90.30;64815.16;5050401;28;20209;-55
2023/08/12 02:45:51;;;;;;;2.20;2.00;;;;;;;17.57;90.25;64817.88;5051247;28;20262;-51
2023/08/12 02:48:17;;;;;;;2.60;2.22;;;;;;;17.65;89.38;64828.72;5048480;28;20271;-51
2023/08/12 02:50:43;;;;;;;2.05;1.83;;;;;;;17.60;89.95;64820.66;5050702;28;20293;-51
2023/08/12 02:53:08;;;;;;;3.38;2.63;;;;;;;17.56;90.44;64816.25;5051270;28;20646;-51
2023/08/12 02:55:34;;;;;;;3.67;2.22;;;;;;;17.66;90.44;64827.25;5050889;28;20753;-56
2023/08/12 02:58:01;;;;;;;3.55;2.65;;;;;;;17.63;90.99;64823.97;5050928;28;20271;-53
2023/08/12 03:00:27;;;;;;;3.17;2.60;;;;;;;17.52;90.97;64809.28;5049883;28;20242;-52
2023/08/12 03:02:54;;;;;;;3.15;2.28;;;;;;;17.47;92.03;64806.31;5050975;28;20327;-51
2023/08/12 03:08:07;;;;;;;3.70;2.67;;;;;;;17.40;93.28;64799.16;5054678;28;20263;-56
2023/08/12 03:10:36;;;;;;;4.63;2.70;;;;;;;17.35;93.69;64793.63;5054482;28;20198;-54
2023/08/12 03:13:01;;;;;;;4.35;2.28;;;;;;;17.26;92.94;64785.72;5052930;28;20571;-51
2023/08/12 03:15:28;;;;;;;3.22;2.47;;;;;;;17.38;93.52;64798.94;5055197;28;20319;-51
2023/08/12 03:17:53;;;;;;;5.80;3.13;;;;;;;17.36;93.82;64794.75;5055592;28;20278;-54
2023/08/12 03:20:19;;;;;;;6.20;2.90;;;;;;;17.33;93.90;64788.88;5054825;28;20276;-50
2023/08/12 03:22:45;;;;;;;11.38;3.40;;;;;;;17.19;95.02;64778.53;5054847;28;20216;-55
2023/08/12 03:25:10;;;;;;;6.00;3.60;;;;;;;17.06;96.09;64761.69;5054064;28;20200;-54
2023/08/12 03:27:36;;;;;;;5.70;3.17;;;;;;;16.94;97.26;64748.47;5054140;28;20224;-54
2023/08/12 03:30:01;;;;;;;6.72;3.28;;;;;;;16.97;97.64;64751.75;5054370;28;20212;-50
2023/08/12 03:32:27;;;;;;;5.55;3.03;;;;;;;17.07;98.13;64765.31;5053851;28;20620;-54
2023/08/12 03:34:55;;;;;;;7.18;3.30;;;;;;;17.16;97.49;64774.69;5052147;28;20272;-53
2023/08/12 03:37:20;;;;;;;6.38;3.30;;;;;;;17.14;97.12;64772.50;5070699;22;20226;-52
2023/08/12 03:39:46;;;;;;;5.03;3.10;;;;;;;17.03;98.51;64757.84;5053249;28;20208;-51
2023/08/12 03:42:12;;;;;;;6.53;3.28;;;;;;;16.97;98.89;64754.31;5052849;28;20204;-55
2023/08/12 03:44:37;;;;;;;7.53;2.90;;;;;;;16.99;98.84;64756.50;5051300;28;20224;-54
2023/08/12 03:47:03;;;;;;;5.38;2.90;;;;;;;17.06;98.67;64763.69;5051251;28;20209;-55
2023/08/12 03:49:28;;;;;;;6.35;3.30;;;;;;;16.95;99.62;64751.56;5052650;28;20194;-53
2023/08/12 03:51:54;;;;;;;4.22;2.90;;;;;;;16.95;99.82;64749.56;5051280;28;20228;-53
2023/08/12 03:54:19;;;;;;;4.00;3.20;;;;;;;16.86;100.00;64739.09;5052353;28;20272;-55
2023/08/12 03:56:45;;;;;;;5.22;2.97;;;;;;;16.81;100.00;64733.59;5052437;28;20263;-54
2023/08/12 03:59:10;;;;;;;5.45;3.17;;;;;;;16.88;99.47;64743.84;5052438;28;20584;-55
2023/08/12 04:01:37;;;;;;;4.72;2.95;;;;;;;16.82;100.00;64737.25;5052195;28;20611;-54
2023/08/12 04:04:03;;;;;;;10.75;3.97;;;;;;;16.72;100.00;64724.78;5052072;28;20201;-54
2023/08/12 04:06:29;;;;;;;9.05;3.88;;;;;;;16.63;100.00;64717.41;5052250;28;20296;-55
2023/08/12 04:08:55;;;;;;;7.47;3.45;;;;;;;16.65;100.00;64719.06;5050802;28;20225;-53
2023/08/12 04:11:20;;;;;;;4.22;3.28;;;;;;;16.67;100.00;64721.81;5052131;28;20711;-54
2023/08/12 04:13:46;;;;;;;9.13;3.70;;;;;;;16.39;100.00;64688.44;5052388;28;20628;-53
2023/08/12 04:16:11;;;;;;;5.45;3.88;;;;;;;16.39;100.00;64688.44;5052607;28;20300;-53
2023/08/12 04:18:37;;;;;;;7.32;4.05;;;;;;;16.53;100.00;64706.41;5051838;28;20702;-53
2023/08/12 04:21:02;;;;;;;4.47;3.80;;;;;;;16.51;100.00;64704.22;5052443;28;20217;-52
2023/08/12 04:23:28;;;;;;;5.38;3.50;;;;;;;16.34;100.00;64685.47;5052324;28;20288;-51
2023/08/12 04:25:54;;;;;;;5.03;3.20;;;;;;;16.19;100.00;64666.41;5051539;28;20612;-51
2023/08/12 04:28:19;;;;;;;5.15;3.75;;;;;;;16.28;100.00;64676.31;5052347;28;20564;-51
2023/08/12 04:30:46;;;;;;;8.85;3.80;;;;;;;16.40;100.00;64689.00;5051960;28;20195;-54
2023/08/12 04:33:13;;;;;;;4.72;3.42;;;;;;;16.60;100.00;64713.56;5051533;28;20257;-54
2023/08/12 04:35:40;;;;;;;5.20;3.33;;;;;;;16.73;100.00;64728.44;5052279;28;20666;-50
2023/08/12 04:38:05;;;;;;;5.45;3.20;;;;;;;17.63;100.00;64823.97;5052239;28;20197;-54
2023/08/12 04:40:31;;;;;;;6.00;3.45;;;;;;;17.72;98.20;64836.41;5051995;28;20205;-53
2023/08/12 04:43:01;;;;;;;5.63;3.08;;;;;;;17.97;96.86;64861.44;5051953;28;20205;-50
2023/08/12 04:45:27;;;;;;;5.13;2.90;;;;;;;18.21;95.50;64887.91;5050460;28;20202;-53
2023/08/12 04:47:53;;;;;;;4.65;2.92;;;;;;;18.46;93.37;64914.94;5051324;28;20253;-53
2023/08/12 04:50:19;;;;;;;7.65;3.47;;;;;;;18.77;91.40;64948.59;5052551;28;20621;-51
2023/08/12 04:52:46;;;;;;;4.95;3.53;;;;;;;18.86;89.56;64961.06;5050028;28;20257;-51
2023/08/12 04:55:11;;;;;;;7.60;3.70;;;;;;;18.84;90.09;64956.88;5051676;28;20166;-55
2023/08/12 04:57:37;;;;;;;5.88;3.40;;;;;;;18.98;89.25;64969.22;5051656;28;20644;-51
2023/08/12 05:00:07;;;;;;;6.28;3.40;;;;;;;19.08;88.37;64980.25;5052000;28;20198;-52
2023/08/12 05:02:33;;;;;;;5.72;3.78;;;;;;;19.14;87.84;64989.97;5066488;28;20205;-51
2023/08/12 05:04:59;;;;;;;5.57;3.20;;;;;;;19.32;86.42;65004.19;5050126;28;20205;-51
2023/08/12 05:07:24;;;;;;;8.23;3.17;;;;;;;19.53;85.77;65031.94;5051107;28;20606;-51
2023/08/12 05:09:50;;;;;;;10.52;3.92;;;;;;;19.65;89.45;65045.75;5052555;28;20198;-52
2023/08/12 05:12:15;;;;;;;9.27;3.55;;;;;;;19.96;90.10;65079.44;5051176;28;20310;-54
2023/08/12 05:14:41;;;;;;;7.40;3.75;;;;;;;20.13;84.91;65097.66;5051311;28;20602;-55
2023/08/12 05:17:06;;;;;;;4.80;3.55;;;;;;;20.04;84.05;65085.69;5052652;28;20250;-51
2023/08/12 05:19:32;;;;;;;6.78;3.70;;;;;;;19.96;84.04;65076.88;5051460;28;20197;-57
2023/08/12 05:22:18;;;;;;;6.35;3.30;;;;;;;19.78;81.73;65060.09;5052416;28;20228;-51
2023/08/12 05:24:51;;;;;;;6.75;3.50;;;;;;;19.60;78.84;65040.22;5049877;28;20598;-54
2023/08/12 05:27:17;;;;;;;4.60;3.53;;;;;;;19.10;81.38;64987.56;5049291;28;20217;-51
2023/08/12 05:29:42;;;;;;;3.17;2.80;;;;;;;19.13;82.47;64988.31;5051896;28;20294;-51
2023/08/12 05:32:08;;;;;;;4.97;3.20;;;;;;;19.08;85.40;64985.34;5051168;28;20217;-51
2023/08/12 05:34:33;;;;;;;7.35;4.15;;;;;;;18.91;84.39;64961.47;5049455;28;20209;-54
2023/08/12 05:36:58;;;;;;;7.38;3.92;;;;;;;18.73;85.24;64944.16;5049677;28;20263;-53
2023/08/12 05:39:24;;;;;;;5.88;3.60;;;;;;;18.34;86.40;64904.78;5049957;28;20548;-53
2023/08/12 05:41:50;;;;;;;5.50;3.80;;;;;;;18.19;86.73;64885.16;5051695;28;20213;-52
2023/08/12 05:44:16;;;;;;;5.82;3.90;;;;;;;18.27;86.99;64894.53;5052181;28;20197;-51
2023/08/12 05:46:41;;;;;;;5.50;3.70;;;;;;;18.43;86.83;64911.63;5051020;28;20297;-51
2023/08/12 05:49:07;;;;;;;3.90;3.38;;;;;;;18.81;86.24;64951.00;5051799;28;20181;-54
2023/08/12 05:51:32;;;;;;;4.30;3.08;;;;;;;18.98;84.04;64969.75;5052022;28;20716;-53
2023/08/12 05:53:59;;;;;;;4.00;2.60;;;;;;;18.92;82.44;64965.16;5050881;28;20549;-51
2023/08/12 05:56:24;;;;;;;4.50;3.13;;;;;;;19.22;84.19;64996.25;5049427;28;20549;-53
2023/08/12 05:58:51;;;;;;;4.13;2.70;;;;;;;19.36;82.83;65010.63;5051420;28;20201;-51
2023/08/12 06:01:17;;;;;;;3.47;2.70;;;;;;;19.33;80.96;65007.88;5052666;28;20221;-53
2023/08/12 06:03:42;;;;;;;3.53;3.03;;;;;;;19.11;78.84;64983.53;5051136;28;20193;-56
2023/08/12 06:06:08;;;;;;;4.55;2.63;;;;;;;18.98;78.31;64974.31;5051163;28;20223;-53
2023/08/12 06:08:34;;;;;;;5.43;2.90;;;;;;;18.76;79.04;64945.50;5050538;28;20272;-53
2023/08/12 06:11:00;;;;;;;2.67;2.25;;;;;;;18.67;79.43;64935.56;5050522;28;20221;-60
2023/08/12 06:13:25;;;;;;;3.33;2.58;;;;;;;18.45;78.80;64911.28;5050409;28;20205;-52
2023/08/12 06:15:51;;;;;;;3.53;2.33;;;;;;;18.63;78.73;64928.03;5050435;28;20215;-54
2023/08/12 06:18:17;;;;;;;4.47;2.33;;;;;;;18.47;78.88;64913.50;5049025;28;20205;-53
2023/08/12 06:20:42;;;;;;;5.50;2.30;;;;;;;18.46;78.68;64914.41;5049922;28;20180;-54
2023/08/12 06:23:08;;;;;;;2.95;2.30;;;;;;;18.33;79.82;64903.69;5050477;28;20685;-51
2023/08/12 06:25:35;;;;;;;2.83;2.30;;;;;;;18.33;79.62;64900.59;5050076;28;20201;-51
2023/08/12 06:28:04;;;;;;;4.60;2.67;;;;;;;18.18;80.46;64881.50;5050220;28;20288;-54
2023/08/12 06:30:37;;;;;;;5.18;2.92;;;;;;;18.18;81.28;64884.59;5050341;28;20197;-54
2023/08/12 06:33:03;;;;;;;2.80;2.47;;;;;;;18.27;81.42;64894.53;5050018;28;20233;-54
2023/08/12 06:35:28;;;;;;;3.42;2.88;;;;;;;18.39;82.23;64910.31;5049907;28;20213;-57
2023/08/12 06:37:54;;;;;;;2.97;2.60;;;;;;;18.59;81.53;64931.28;5050413;28;20205;-53
2023/08/12 06:40:20;;;;;;;3.72;2.92;;;;;;;18.63;80.75;64933.69;5052471;28;20193;-53
2023/08/12 06:42:45;;;;;;;5.28;2.22;;;;;;;18.62;81.08;64929.50;5053837;28;20224;-53
2023/08/12 06:45:11;;;;;;;3.72;3.30;;;;;;;18.70;79.87;64933.22;5053199;28;20637;-52
2023/08/12 06:47:37;;;;;;;3.53;3.13;;;;;;;18.76;78.03;64944.94;5053561;28;20201;-53
2023/08/12 06:50:03;;;;;;;19.85;17.75;;;;;;;19.02;81.72;64976.75;5053553;28;20215;-56
2023/08/12 06:52:29;;;;;;;6.28;5.70;;;;;;;19.16;79.34;64986.53;5053164;28;20220;-55
2023/08/12 06:54:54;;;;;;;8.25;3.72;;;;;;;19.50;81.91;65026.06;5054230;28;20217;-50
2023/08/12 06:57:20;;;;;;;7.65;4.25;;;;;;;19.60;77.82;65037.66;5052403;28;20594;-51
2023/08/12 06:59:45;;;;;;;5.05;4.10;;;;;;;19.63;76.63;65040.44;5054619;28;20213;-51
2023/08/12 07:02:11;;;;;;;4.82;3.45;;;;;;;19.68;75.12;65045.94;5054029;28;20233;-52
2023/08/12 07:04:37;;;;;;;7.18;3.47;;;;;;;19.75;74.01;65054.25;5053693;28;20205;-52
2023/08/12 07:07:02;;;;;;;5.13;3.38;;;;;;;20.00;79.83;65081.84;5053285;28;20209;-51
2023/08/12 07:09:28;;;;;;;3.72;3.28;;;;;;;20.33;80.98;65117.78;5052973;28;20201;-52
2023/08/12 07:11:53;;;;;;;4.30;2.80;;;;;;;20.65;72.93;65153.13;5051945;28;20226;-52
2023/08/12 07:14:18;;;;;;;8.50;2.67;;;;;;;20.74;73.27;65165.09;5052883;28;20627;-54
2023/08/12 07:16:44;;;;;;;5.60;3.03;;;;;;;20.89;69.68;65176.53;5051688;28;20209;-53
2023/08/12 07:19:09;;;;;;;4.38;2.67;;;;;;;20.96;72.72;65186.84;5052748;28;20177;-53
2023/08/12 07:21:35;;;;;;;4.43;2.63;;;;;;;21.31;74.61;65223.00;5051436;28;20233;-55
2023/08/12 07:24:00;;;;;;;4.50;2.65;;;;;;;21.39;71.02;65234.41;5052685;28;20569;-52
2023/08/12 07:26:26;;;;;;;3.10;2.70;;;;;;;21.58;70.20;65254.88;5053330;28;20217;-52
2023/08/12 07:28:51;;;;;;;6.45;4.15;;;;;;;21.68;67.81;65266.50;5052579;28;20527;-50
2023/08/12 07:31:17;;;;;;;3.72;2.67;;;;;;;21.62;67.39;65256.72;5052839;28;20271;-50
2023/08/12 07:33:43;;;;;;;3.70;2.92;;;;;;;21.79;67.85;65277.56;5053234;28;20201;-51
2023/08/12 07:36:09;;;;;;;3.42;3.13;;;;;;;22.02;64.28;65303.03;5052924;28;20752;-54
2023/08/12 07:38:36;;;;;;;6.97;4.47;;;;;;;22.15;66.48;65317.41;5051327;28;20215;-52
2023/08/12 07:41:01;;;;;;;5.88;3.50;;;;;;;22.22;63.69;65322.59;5052940;28;20221;-54
2023/08/12 07:43:27;;;;;;;4.78;3.05;;;;;;;22.65;68.58;65372.22;5051918;28;20216;-52
2023/08/12 07:45:54;;;;;;;3.35;2.88;;;;;;;22.89;60.18;65401.94;5052984;28;20276;-52
2023/08/12 07:48:20;;;;;;;19.50;14.80;;;;;;;22.73;62.31;65379.06;5052952;28;20236;-54
2023/08/12 07:50:48;;;;;;;16.95;9.32;;;;;;;22.77;68.41;65386.06;5051666;28;20158;-60
2023/08/12 07:53:14;;;;;;;13.98;9.07;;;;;;;22.82;66.00;65391.06;5052231;28;20205;-53
2023/08/12 07:55:41;;;;;;;26.63;14.55;;;;;;;22.95;71.01;65406.00;5051167;28;20263;-50
2023/08/12 07:58:06;;;;;;;25.88;13.68;;;;;;;22.73;72.15;65383.66;5053874;28;20205;-51
2023/08/12 08:00:33;;;;;;;25.75;13.18;;;;;;;23.11;69.38;65423.72;5052213;28;20201;-50
2023/08/12 08:02:58;;;;;;;38.50;18.90;;;;;;;23.43;72.92;65458.09;5052521;28;20213;-53
2023/08/12 08:05:24;;;;;;;10.07;6.95;;;;;;;23.69;64.86;65486.91;5052496;28;20639;-50
2023/08/12 08:07:49;;;;;;;20.27;12.88;;;;;;;23.89;62.21;65509.63;5052415;28;20220;-52
2023/08/12 08:10:15;;;;;;;12.15;6.75;;;;;;;23.91;59.12;65508.72;5052163;28;20204;-51
2023/08/12 08:12:40;;;;;;;10.80;6.68;;;;;;;23.82;58.71;65499.28;5052424;28;20225;-51
2023/08/12 08:15:06;;;;;;;4.22;3.65;;;;;;;23.88;57.17;65505.94;5051022;28;20671;-55
2023/08/12 08:17:32;;;;;;;3.05;2.78;;;;;;;24.11;54.39;65533.50;5051739;28;20270;-53
2023/08/12 08:19:57;;;;;;;4.65;2.88;;;;;;;24.10;54.51;65529.78;5052706;28;20269;-57
2023/08/12 08:22:23;;;;;;;3.72;3.30;;;;;;;24.07;56.13;65526.47;5051030;28;20214;-51
2023/08/12 08:24:52;;;;;;;3.70;3.13;;;;;;;24.04;55.70;65525.72;5053653;28;20209;-54
2023/08/12 08:27:19;;;;;;;4.07;3.40;;;;;;;23.74;54.66;65493.00;5050648;28;20214;-50
2023/08/12 08:29:44;;;;;;;6.82;3.15;;;;;;;23.68;55.93;65486.34;5051827;28;20590;-52
2023/08/12 08:32:10;;;;;;;3.13;2.72;;;;;;;24.06;55.85;65527.94;5051775;28;20247;-50
2023/08/12 08:34:36;;;;;;;5.00;3.05;;;;;;;24.43;54.74;65565.84;5050461;28;20210;-52
2023/08/12 08:37:02;;;;;;;5.18;2.60;;;;;;;24.34;54.34;65558.97;5050318;28;20209;-55
2023/08/12 08:39:28;;;;;;;2.85;2.58;;;;;;;24.74;50.61;65600.81;5051544;28;20193;-51
2023/08/12 08:41:55;;;;;;;2.50;2.20;;;;;;;24.81;49.74;65605.97;5051710;28;20221;-50
2023/08/12 08:44:23;;;;;;;2.83;2.30;;;;;;;24.61;49.28;65586.34;5052145;28;20193;-52
2023/08/12 08:46:53;;;;;;;3.22;2.00;;;;;;;24.00;49.04;65518.69;5051700;28;20274;-49
2023/08/12 08:49:19;;;;;;;2.92;2.40;;;;;;;23.64;50.60;65483.94;5051561;28;20158;-51
2023/08/12 08:51:47;;;;;;;3.28;1.85;;;;;;;23.74;52.76;65490.44;5051634;28;20697;-51
2023/08/12 08:54:13;;;;;;;2.28;2.08;;;;;;;23.98;51.96;65516.47;5050244;28;20212;-51
2023/08/12 08:56:39;;;;;;;2.67;2.47;;;;;;;24.27;53.91;65551.22;5051222;28;20268;-54
2023/08/12 08:59:04;;;;;;;2.55;2.33;;;;;;;24.67;49.57;65593.00;5051330;28;20710;-50
2023/08/12 09:01:31;;;;;;;2.90;2.33;;;;;;;24.63;49.80;65591.16;5050642;28;20214;-55
2023/08/12 09:03:58;;;;;;;6.10;2.22;;;;;;;24.72;51.64;65598.56;5051443;28;20198;-51
2023/08/12 09:06:29;;;;;;;2.97;2.70;;;;;;;24.85;50.49;65615.56;5051133;28;20314;-54
2023/08/12 09:08:54;;;;;;;5.22;2.45;;;;;;;25.03;49.19;65635.00;5051124;28;20269;-51
2023/08/12 09:11:21;;;;;;;3.90;2.17;;;;;;;24.96;49.54;65625.22;5049648;28;20682;-50
2023/08/12 09:13:48;;;;;;;2.53;1.80;;;;;;;24.63;47.33;65588.56;5050858;28;20208;-50
2023/08/12 09:16:15;;;;;;;4.38;2.85;;;;;;;24.60;48.47;65584.69;5050635;28;20206;-51
2023/08/12 09:18:44;;;;;;;3.03;2.20;;;;;;;24.89;50.51;65619.47;5051123;28;20302;-51
2023/08/12 09:21:10;;;;;;;3.72;2.40;;;;;;;24.73;48.86;65599.13;5050969;28;20668;-53
2023/08/12 09:23:38;;;;;;;3.42;2.67;;;;;;;25.24;50.35;65657.75;5050785;28;20201;-51
2023/08/12 09:26:15;;;;;;;2.83;2.53;;;;;;;25.46;48.65;65680.16;5049338;28;20218;-50
2023/08/12 09:28:42;;;;;;;2.88;2.28;;;;;;;25.43;48.70;65679.41;5049483;28;20232;-51
2023/08/12 09:31:07;;;;;;;2.72;2.20;;;;;;;26.04;46.56;65746.03;5050809;28;20217;-53
2023/08/12 09:33:38;;;;;;;4.53;2.13;;;;;;;25.93;45.27;65731.22;5050737;28;20213;-51
2023/08/12 09:36:04;;;;;;;3.28;2.72;;;;;;;25.90;45.89;65728.44;5049144;28;20224;-51
2023/08/12 09:38:30;;;;;;;2.20;2.00;;;;;;;25.66;45.21;65704.94;5050523;28;20202;-51
2023/08/12 09:40:56;;;;;;;5.40;3.08;;;;;;;25.98;45.45;65739.38;5049187;28;20247;-50
2023/08/12 09:43:29;;;;;;;2.95;2.53;;;;;;;25.88;44.47;65726.22;5051042;28;20313;-50
2023/08/12 09:45:58;;;;;;;5.88;3.25;;;;;;;25.92;44.33;65732.72;5050455;28;20339;-51
2023/08/12 09:48:25;;;;;;;3.78;2.70;;;;;;;25.52;44.66;65688.84;5050645;28;20262;-52
2023/08/12 09:50:53;;;;;;;2.92;2.33;;;;;;;25.96;43.44;65735.09;5050532;28;20294;-51
2023/08/12 09:53:21;;;;;;;3.22;2.83;;;;;;;26.34;44.24;65777.34;5050420;28;20206;-50
2023/08/12 09:55:48;;;;;;;3.22;2.10;;;;;;;27.24;42.72;65876.25;5050039;28;20680;-51
2023/08/12 09:58:18;;;;;;;3.10;2.20;;;;;;;27.65;41.68;65921.31;5050833;28;20292;-51
2023/08/12 10:00:45;;;;;;;2.53;2.00;;;;;;;27.95;42.15;65952.69;5050548;28;20575;-51
2023/08/12 10:03:16;;;;;;;7.57;5.63;;;;;;;27.94;40.97;65951.53;5048950;28;20201;-51
2023/08/12 10:05:42;;;;;;;2.55;2.15;;;;;;;28.49;39.04;66012.19;5050179;28;20185;-51
2023/08/12 10:08:07;;;;;;;1.88;1.75;;;;;;;28.91;41.04;66061.56;5050591;28;20270;-50
2023/08/12 10:10:35;;;;;;;4.72;1.80;;;;;;;29.23;39.96;66093.50;5050548;28;20599;-55
2023/08/12 10:13:02;;;;;;;3.78;1.75;;;;;;;29.48;38.18;66124.50;5048537;28;20308;-50
2023/08/12 10:15:28;;;;;;;3.17;2.45;;;;;;;29.44;37.98;66120.03;5050274;28;20657;-50
2023/08/12 10:17:55;;;;;;;2.45;1.92;;;;;;;29.38;36.62;66115.94;5048825;28;20783;-51
2023/08/12 10:20:23;;;;;;;2.20;1.88;;;;;;;28.78;38.90;66044.50;5050031;28;20289;-51
2023/08/12 10:22:50;;;;;;;2.83;2.40;;;;;;;28.73;37.71;66040.94;5049882;28;20288;-51
2023/08/12 10:25:21;;;;;;;4.32;1.90;;;;;;;28.84;37.67;66053.22;5050190;28;20310;-51
2023/08/12 10:27:48;;;;;;;1.95;1.83;;;;;;;29.08;38.27;66076.75;5050400;28;20308;-51
2023/08/12 10:30:14;;;;;;;2.35;1.67;;;;;;;29.37;36.75;66111.69;5050012;28;20205;-50
2023/08/12 10:32:40;;;;;;;4.95;1.75;;;;;;;29.73;38.61;66154.41;5050234;28;20354;-50
2023/08/12 10:35:06;;;;;;;4.05;3.65;;;;;;;30.09;38.98;66191.34;5050245;28;20257;-54
2023/08/12 10:37:33;;;;;;;2.50;1.90;;;;;;;30.50;37.08;66240.22;5050460;28;20221;-52
2023/08/12 10:40:03;;;;;;;5.15;3.13;;;;;;;29.35;37.45;66110.00;5049381;28;20221;-53
2023/08/12 10:42:47;;;;;;;3.50;3.20;;;;;;;28.65;38.19;66032.63;5048082;28;20774;-50
2023/08/12 10:45:14;;;;;;;3.28;2.42;;;;;;;28.99;36.64;66073.06;5050221;28;20217;-53
2023/08/12 10:47:48;;;;;;;1.80;1.67;;;;;;;30.01;36.08;66179.84;5049971;28;20300;-52
2023/08/12 10:50:21;;;;;;;2.30;2.10;;;;;;;30.42;33.98;66226.09;5049864;28;20294;-51
2023/08/12 10:52:47;;;;;;;3.08;1.88;;;;;;;29.87;33.50;66164.25;5050016;28;20252;-51
2023/08/12 10:55:21;;;;;;;4.65;1.92;;;;;;;29.44;34.27;66120.03;5049906;28;20182;-52
2023/08/12 10:57:52;;;;;;;3.25;2.78;;;;;;;29.53;34.24;66132.09;5049873;28;20296;-50
2023/08/12 11:00:22;;;;;;;3.50;1.95;;;;;;;30.15;34.44;66196.00;5049756;28;20603;-52
2023/08/12 11:02:53;;;;;;;2.70;1.63;;;;;;;30.61;35.36;66249.34;5049898;28;20399;-52
2023/08/12 11:05:20;;;;;;;3.28;2.00;;;;;;;30.98;35.49;66288.00;5049649;28;20235;-51
2023/08/12 11:07:52;;;;;;;3.05;2.20;;;;;;;31.35;34.51;66331.34;5049750;28;20213;-51
2023/08/12 11:10:19;;;;;;;3.15;1.95;;;;;;;31.07;32.02;66300.66;5049516;28;20732;-50
2023/08/12 11:12:55;;;;;;;2.25;1.67;;;;;;;31.03;31.77;66296.19;5048217;28;20228;-51
2023/08/12 11:15:37;;;;;;;1.83;1.70;;;;;;;31.23;32.15;66317.94;5049358;28;20236;-50
2023/08/12 11:18:08;;;;;;;3.40;2.40;;;;;;;30.81;32.43;66268.47;5049227;28;20213;-51
2023/08/12 11:20:35;;;;;;;5.53;3.83;;;;;;;30.48;33.47;66235.41;5049555;28;20210;-53
2023/08/12 11:23:03;;;;;;;1.92;1.83;;;;;;;30.70;33.56;66259.38;5049343;28;20213;-51
2023/08/12 11:25:30;;;;;;;3.38;2.92;;;;;;;30.54;33.21;66239.47;5050714;28;20189;-50
2023/08/12 11:27:55;;;;;;;3.13;1.70;;;;;;;31.17;33.19;66311.78;5052834;28;20221;-50
2023/08/12 11:30:22;;;;;;;3.17;1.70;;;;;;;31.20;33.11;66312.53;5053254;28;20555;-50
2023/08/12 11:32:53;;;;;;;2.38;2.17;;;;;;;31.02;33.13;66295.06;5051416;28;20229;-51